createdAt,value
2023-01-19T19:41:23.522Z,5.00
2023-01-19T19:43:52.518Z,3.00
2023-01-19T19:46:24.004Z,2.80
2023-01-19T19:48:53.274Z,2.80
2023-01-19T19:51:25.637Z,2.80
2023-01-19T19:53:54.072Z,2.80
2023-01-19T19:56:24.824Z,2.70
2023-01-19T19:58:55.814Z,2.80
2023-01-19T20:01:34.028Z,2.80
2023-01-19T20:04:08.612Z,2.80
2023-01-19T20:06:39.779Z,2.80
2023-01-19T20:09:12.727Z,2.70
2023-01-19T20:11:41.454Z,2.70
2023-01-19T20:14:12.249Z,2.80
2023-01-19T20:16:41.161Z,2.60
2023-01-19T20:19:10.330Z,2.50
2023-01-19T20:21:42.438Z,2.50
2023-01-19T20:24:19.533Z,2.60
2023-01-19T20:26:51.670Z,2.50
2023-01-19T20:29:20.894Z,2.40
2023-01-19T20:31:52.785Z,2.40
2023-01-19T20:34:23.612Z,2.40
2023-01-19T20:36:53.775Z,2.40
2023-01-19T20:39:24.372Z,2.40
2023-01-19T20:41:53.273Z,2.50
2023-01-19T20:44:24.061Z,2.40
2023-01-19T20:46:54.247Z,2.40
2023-01-19T20:49:23.256Z,2.40
2023-01-19T20:51:52.164Z,2.30
2023-01-19T20:54:24.237Z,2.50
2023-01-19T20:56:52.843Z,2.30
2023-01-19T20:59:21.705Z,2.30
2023-01-19T21:01:50.930Z,2.30
2023-01-19T21:04:19.712Z,2.40
2023-01-19T21:09:18.410Z,2.30
2023-01-19T21:11:46.973Z,2.20
2023-01-19T21:14:15.587Z,2.20
2023-01-19T21:16:44.218Z,2.10
2023-01-19T21:21:41.225Z,2.00
2023-01-19T21:24:11.714Z,2.00
2023-01-19T21:26:41.668Z,1.80
2023-01-19T21:29:13.326Z,1.90
2023-01-19T21:31:43.064Z,1.70
2023-01-19T21:34:11.852Z,1.60
2023-01-19T21:36:41.823Z,1.60
2023-01-19T21:39:10.397Z,1.50
2023-01-19T21:41:40.941Z,1.50
2023-01-19T21:44:11.131Z,1.70
2023-01-19T21:46:39.941Z,1.80
2023-01-19T21:49:09.501Z,1.90
2023-01-19T21:51:38.217Z,2.00
2023-01-19T21:54:08.032Z,2.10
2023-01-19T21:56:38.848Z,2.20
2023-01-19T21:59:07.520Z,2.20
2023-01-19T22:01:36.479Z,2.20
2023-01-19T22:04:05.422Z,2.20
2023-01-19T22:06:34.313Z,2.20
2023-01-19T22:09:03.160Z,2.20
2023-01-19T22:11:31.761Z,2.10
2023-01-19T22:14:00.493Z,2.20
2023-01-19T22:16:30.586Z,2.30
2023-01-19T22:19:02.419Z,2.40
2023-01-19T22:21:35.472Z,2.50
2023-01-19T22:24:06.109Z,2.40
2023-01-19T22:26:36.780Z,2.50
2023-01-19T22:29:08.196Z,2.50
2023-01-19T22:31:36.920Z,2.40
2023-01-19T22:34:07.644Z,2.50
2023-01-19T22:36:36.616Z,2.40
2023-01-19T22:39:11.161Z,2.40
2023-01-19T22:41:45.297Z,2.40
2023-01-19T22:44:16.478Z,2.30
2023-01-19T22:46:45.211Z,3.10
2023-01-19T22:49:16.165Z,2.20
2023-01-19T22:51:45.180Z,2.20
2023-01-19T22:54:14.472Z,2.10
2023-01-19T22:56:43.661Z,2.00
2023-01-19T22:59:12.215Z,1.90
2023-01-19T23:01:42.940Z,2.00
2023-01-19T23:04:16.485Z,1.70
2023-01-19T23:06:47.010Z,2.60
2023-01-19T23:09:16.182Z,1.80
2023-01-19T23:11:48.518Z,1.80
2023-01-19T23:14:17.024Z,1.80
2023-01-19T23:16:47.030Z,1.90
2023-01-19T23:19:17.153Z,1.90
2023-01-19T23:21:46.255Z,1.90
2023-01-19T23:24:14.826Z,2.00
2023-01-19T23:26:45.264Z,2.10
2023-01-19T23:29:15.611Z,2.20
2023-01-19T23:31:46.478Z,2.20
2023-01-19T23:34:15.932Z,2.20
2023-01-19T23:36:44.834Z,2.30
2023-01-19T23:39:19.128Z,2.30
2023-01-19T23:41:48.030Z,2.20
2023-01-19T23:44:17.360Z,2.20
2023-01-19T23:46:46.408Z,2.90
2023-01-19T23:51:43.403Z,2.40
2023-01-19T23:54:12.234Z,2.50
2023-01-19T23:56:42.528Z,2.60
